Time;durP1;ratioP1;P1;durP2;ratioP2;P2;SDS_P1;SDS_P2;PMS_P1;PMS_P2;Temp;Humidity;BMP_temperature;BMP_pressure;BME280_temperature;BME280_humidity;BME280_pressure;Samples;Min_cycle;Max_cycle;Signal;HPM_P1;HPM_P2
2023/11/12 00:00:42;;;;;;;39.70;23.30;;;;;;;-128.00;-1.00;-1.00;105424;1252;1004232;-78
2023/11/12 00:03:29;;;;;;;35.40;22.00;;;;;;;-128.00;-1.00;-1.00;105398;1253;1046943;-78
2023/11/12 00:05:55;;;;;;;31.30;21.90;;;;;;;-128.00;-1.00;-1.00;105451;1251;1004320;-78
2023/11/12 00:08:22;;;;;;;31.40;21.30;;;;;;;-128.00;-1.00;-1.00;105404;1252;1004964;-78
2023/11/12 00:10:48;;;;;;;33.50;22.20;;;;;;;-128.00;-1.00;-1.00;105363;1252;1004794;-78
2023/11/12 00:13:15;;;;;;;31.30;17.20;;;;;;;-128.00;-1.00;-1.00;105376;1253;1004182;-78
2023/11/12 00:15:42;;;;;;;29.90;18.20;;;;;;;-128.00;-1.00;-1.00;105425;1253;1004262;-79
2023/11/12 00:18:08;;;;;;;28.90;18.90;;;;;;;-128.00;-1.00;-1.00;105394;1253;1004348;-78
2023/11/12 00:20:35;;;;;;;26.90;16.60;;;;;;;-128.00;-1.00;-1.00;105399;1252;1003994;-78
2023/11/12 00:23:01;;;;;;;33.40;17.00;;;;;;;-128.00;-1.00;-1.00;105396;1252;1004441;-78
2023/11/12 00:25:28;;;;;;;33.10;14.50;;;;;;;-128.00;-1.00;-1.00;105426;1252;1003708;-78
2023/11/12 00:27:55;;;;;;;63.20;47.40;;;;;;;-128.00;-1.00;-1.00;105413;1253;1004188;-78
2023/11/12 00:30:21;;;;;;;66.30;49.50;;;;;;;-128.00;-1.00;-1.00;105433;1253;1004558;-78
2023/11/12 00:32:48;;;;;;;35.30;25.00;;;;;;;-128.00;-1.00;-1.00;105399;1255;1004273;-78
2023/11/12 00:35:14;;;;;;;25.30;16.10;;;;;;;-128.00;-1.00;-1.00;105400;1253;1005039;-78
2023/11/12 00:37:41;;;;;;;25.40;15.90;;;;;;;-128.00;-1.00;-1.00;105381;1253;1004414;-78
2023/11/12 00:40:08;;;;;;;23.00;14.80;;;;;;;-128.00;-1.00;-1.00;105547;1253;1004416;-78
2023/11/12 00:42:35;;;;;;;20.70;13.80;;;;;;;-128.00;-1.00;-1.00;105392;1253;1004971;-78
2023/11/12 00:45:01;;;;;;;22.40;13.40;;;;;;;-128.00;-1.00;-1.00;105431;1253;1005037;-78
2023/11/12 00:47:28;;;;;;;21.30;12.30;;;;;;;-128.00;-1.00;-1.00;105363;1253;1004681;-78
2023/11/12 00:49:54;;;;;;;21.30;13.00;;;;;;;-128.00;-1.00;-1.00;105441;1252;1003362;-78
2023/11/12 00:52:21;;;;;;;19.70;11.80;;;;;;;-128.00;-1.00;-1.00;105388;1254;1003838;-78
2023/11/12 00:54:48;;;;;;;19.20;10.70;;;;;;;-128.00;-1.00;-1.00;105419;1252;1004507;-79
2023/11/12 00:57:14;;;;;;;20.30;11.80;;;;;;;-128.00;-1.00;-1.00;105422;1253;1004563;-78
2023/11/12 00:59:42;;;;;;;21.70;11.70;;;;;;;-128.00;-1.00;-1.00;105393;1252;1003639;-78
2023/11/12 01:02:11;;;;;;;17.80;10.40;;;;;;;-128.00;-1.00;-1.00;105357;1252;1004741;-78
2023/11/12 01:04:38;;;;;;;23.20;12.50;;;;;;;-128.00;-1.00;-1.00;105407;1253;1046404;-78
2023/11/12 01:07:04;;;;;;;23.40;14.10;;;;;;;-128.00;-1.00;-1.00;105415;1252;1003829;-78
2023/11/12 01:09:31;;;;;;;22.50;11.90;;;;;;;-128.00;-1.00;-1.00;105519;1252;1005126;-78
2023/11/12 01:11:57;;;;;;;21.90;12.00;;;;;;;-128.00;-1.00;-1.00;105438;1253;1006002;-78
2023/11/12 01:14:24;;;;;;;20.90;12.50;;;;;;;-128.00;-1.00;-1.00;105413;1252;1003561;-78
2023/11/12 01:16:50;;;;;;;19.50;10.30;;;;;;;-128.00;-1.00;-1.00;105434;1253;1004576;-78
2023/11/12 01:19:17;;;;;;;17.80;10.40;;;;;;;-128.00;-1.00;-1.00;105455;1253;1005213;-78
2023/11/12 01:21:43;;;;;;;18.10;11.50;;;;;;;-128.00;-1.00;-1.00;105419;1253;1005045;-78
2023/11/12 01:24:10;;;;;;;18.60;11.20;;;;;;;-128.00;-1.00;-1.00;105360;1252;1004372;-78
2023/11/12 01:26:37;;;;;;;15.90;10.50;;;;;;;-128.00;-1.00;-1.00;105367;1253;1004995;-78
2023/11/12 01:29:03;;;;;;;15.90;9.90;;;;;;;-128.00;-1.00;-1.00;105454;1253;1004255;-78
2023/11/12 01:31:30;;;;;;;17.90;10.30;;;;;;;-128.00;-1.00;-1.00;105394;1253;1005010;-78
2023/11/12 01:33:57;;;;;;;16.60;11.70;;;;;;;-128.00;-1.00;-1.00;105393;1252;1003677;-78
2023/11/12 01:36:23;;;;;;;18.50;11.90;;;;;;;-128.00;-1.00;-1.00;105370;1253;1004691;-78
2023/11/12 01:38:49;;;;;;;16.10;9.20;;;;;;;-128.00;-1.00;-1.00;105406;1253;1004270;-78
2023/11/12 01:41:16;;;;;;;16.00;10.80;;;;;;;-128.00;-1.00;-1.00;105413;1253;1003809;-78
2023/11/12 01:43:42;;;;;;;20.00;11.70;;;;;;;-128.00;-1.00;-1.00;105405;1252;1004962;-78
2023/11/12 01:46:09;;;;;;;17.80;10.50;;;;;;;-128.00;-1.00;-1.00;105417;1253;1005199;-78
2023/11/12 01:48:36;;;;;;;20.20;11.60;;;;;;;-128.00;-1.00;-1.00;105353;1253;1003337;-78
2023/11/12 01:51:04;;;;;;;19.90;11.90;;;;;;;-128.00;-1.00;-1.00;105304;1253;1004731;-78
2023/11/12 01:53:32;;;;;;;19.90;11.50;;;;;;;-128.00;-1.00;-1.00;105422;1252;1004553;-78
2023/11/12 01:55:59;;;;;;;23.20;12.50;;;;;;;-128.00;-1.00;-1.00;105444;1252;1004917;-78
2023/11/12 01:58:27;;;;;;;20.00;12.80;;;;;;;-128.00;-1.00;-1.00;105390;1252;1003627;-78
2023/11/12 02:00:54;;;;;;;25.40;14.00;;;;;;;-128.00;-1.00;-1.00;105417;1253;1003471;-78
2023/11/12 02:03:20;;;;;;;25.90;13.20;;;;;;;-128.00;-1.00;-1.00;105367;1253;1003418;-78
2023/11/12 02:05:47;;;;;;;22.70;13.30;;;;;;;-128.00;-1.00;-1.00;105284;1253;1003825;-78
2023/11/12 02:08:14;;;;;;;24.40;13.20;;;;;;;-128.00;-1.00;-1.00;105242;1253;1004123;-79
2023/11/12 02:10:41;;;;;;;23.20;13.70;;;;;;;-128.00;-1.00;-1.00;105402;1253;1004791;-78
2023/11/12 02:13:08;;;;;;;23.80;14.50;;;;;;;-128.00;-1.00;-1.00;105271;1253;1004329;-78
2023/11/12 02:15:35;;;;;;;20.00;12.20;;;;;;;-128.00;-1.00;-1.00;105372;1253;1005277;-78
2023/11/12 02:18:01;;;;;;;19.40;12.20;;;;;;;-128.00;-1.00;-1.00;105415;1253;1004620;-78
2023/11/12 02:20:28;;;;;;;24.10;12.90;;;;;;;-128.00;-1.00;-1.00;105372;1253;1004332;-78
2023/11/12 02:22:55;;;;;;;23.00;11.80;;;;;;;-128.00;-1.00;-1.00;105409;1253;1004102;-78
2023/11/12 02:25:21;;;;;;;17.60;11.30;;;;;;;-128.00;-1.00;-1.00;105379;1253;1003771;-78
2023/11/12 02:27:48;;;;;;;15.90;9.60;;;;;;;-128.00;-1.00;-1.00;105385;1253;1004295;-78
2023/11/12 02:30:15;;;;;;;15.50;10.10;;;;;;;-128.00;-1.00;-1.00;105436;1253;1004363;-78
2023/11/12 02:32:42;;;;;;;12.90;7.70;;;;;;;-128.00;-1.00;-1.00;105345;1253;1004599;-78
2023/11/12 02:35:08;;;;;;;13.60;8.10;;;;;;;-128.00;-1.00;-1.00;105340;1253;1004050;-78
2023/11/12 02:37:35;;;;;;;14.40;9.20;;;;;;;-128.00;-1.00;-1.00;105352;1253;1004254;-79
2023/11/12 02:40:02;;;;;;;16.20;9.00;;;;;;;-128.00;-1.00;-1.00;105378;1253;1005239;-78
2023/11/12 02:42:29;;;;;;;18.30;10.90;;;;;;;-128.00;-1.00;-1.00;105408;1253;1004001;-79
2023/11/12 02:44:57;;;;;;;17.60;12.70;;;;;;;-128.00;-1.00;-1.00;105530;1253;1004788;-78
2023/11/12 02:47:23;;;;;;;19.20;12.00;;;;;;;-128.00;-1.00;-1.00;105426;1252;1003527;-78
2023/11/12 02:50:05;;;;;;;20.80;11.80;;;;;;;-128.00;-1.00;-1.00;105423;1253;1003958;-78
2023/11/12 02:52:32;;;;;;;20.70;12.40;;;;;;;-128.00;-1.00;-1.00;105405;1253;1045925;-78
2023/11/12 02:54:59;;;;;;;19.60;11.80;;;;;;;-128.00;-1.00;-1.00;105498;1253;1004273;-78
2023/11/12 02:57:26;;;;;;;21.10;12.60;;;;;;;-128.00;-1.00;-1.00;105392;1253;1003869;-78
2023/11/12 02:59:54;;;;;;;19.30;12.80;;;;;;;-128.00;-1.00;-1.00;105443;1253;1004425;-78
2023/11/12 03:02:22;;;;;;;20.70;12.80;;;;;;;-128.00;-1.00;-1.00;105360;1253;1004747;-78
2023/11/12 03:04:49;;;;;;;22.00;13.70;;;;;;;-128.00;-1.00;-1.00;105403;1253;1004800;-78
2023/11/12 03:07:18;;;;;;;22.80;14.60;;;;;;;-128.00;-1.00;-1.00;105359;1253;1004834;-78
2023/11/12 03:09:46;;;;;;;23.00;14.00;;;;;;;-128.00;-1.00;-1.00;105418;1252;1061023;-78
2023/11/12 03:12:13;;;;;;;17.40;11.20;;;;;;;-128.00;-1.00;-1.00;105426;1253;1005674;-78
2023/11/12 03:14:41;;;;;;;16.50;10.30;;;;;;;-128.00;-1.00;-1.00;105391;1253;1003445;-78
2023/11/12 03:17:07;;;;;;;15.40;8.40;;;;;;;-128.00;-1.00;-1.00;105369;1252;1003802;-78
2023/11/12 03:19:34;;;;;;;10.80;7.20;;;;;;;-128.00;-1.00;-1.00;105438;1253;1003819;-78
2023/11/12 03:22:01;;;;;;;11.80;6.90;;;;;;;-128.00;-1.00;-1.00;105422;1256;1003763;-78
2023/11/12 03:24:28;;;;;;;9.90;7.30;;;;;;;-128.00;-1.00;-1.00;105410;1253;1003584;-78
2023/11/12 03:26:54;;;;;;;9.30;7.40;;;;;;;-128.00;-1.00;-1.00;105399;1253;1004076;-78
2023/11/12 03:29:23;;;;;;;10.80;6.50;;;;;;;-128.00;-1.00;-1.00;105424;1253;1004310;-77
2023/11/12 03:31:52;;;;;;;9.20;6.40;;;;;;;-128.00;-1.00;-1.00;105376;1253;1046727;-78
2023/11/12 03:34:19;;;;;;;11.40;6.90;;;;;;;-128.00;-1.00;-1.00;105527;1253;1061326;-78
2023/11/12 03:36:46;;;;;;;10.30;6.40;;;;;;;-128.00;-1.00;-1.00;105388;1253;1004015;-78
2023/11/12 03:39:13;;;;;;;9.80;7.20;;;;;;;-128.00;-1.00;-1.00;105405;1252;1005491;-78
2023/11/12 03:41:39;;;;;;;9.60;6.70;;;;;;;-128.00;-1.00;-1.00;105391;1253;1004570;-78
2023/11/12 03:44:07;;;;;;;8.60;5.90;;;;;;;-128.00;-1.00;-1.00;105424;1253;1005130;-78
2023/11/12 03:46:35;;;;;;;10.30;6.60;;;;;;;-128.00;-1.00;-1.00;105393;1253;1003897;-78
2023/11/12 03:49:04;;;;;;;6.90;4.60;;;;;;;-128.00;-1.00;-1.00;105430;1253;1057692;-78
2023/11/12 03:51:32;;;;;;;8.00;5.10;;;;;;;-128.00;-1.00;-1.00;105268;1253;1059329;-78
2023/11/12 03:54:01;;;;;;;6.50;4.40;;;;;;;-128.00;-1.00;-1.00;105394;1253;1004498;-78
2023/11/12 03:56:29;;;;;;;6.50;4.20;;;;;;;-128.00;-1.00;-1.00;105397;1253;1046607;-78
2023/11/12 03:58:56;;;;;;;5.30;3.60;;;;;;;-128.00;-1.00;-1.00;105428;1253;1004139;-78
2023/11/12 04:01:23;;;;;;;6.00;4.10;;;;;;;-128.00;-1.00;-1.00;105457;1253;1004616;-78
2023/11/12 04:03:51;;;;;;;7.80;4.30;;;;;;;-128.00;-1.00;-1.00;105242;1253;1004020;-78
2023/11/12 04:06:18;;;;;;;6.80;4.70;;;;;;;-128.00;-1.00;-1.00;105365;1253;1004295;-78
2023/11/12 04:08:44;;;;;;;5.50;4.10;;;;;;;-128.00;-1.00;-1.00;105393;1253;1004241;-78
2023/11/12 04:11:12;;;;;;;5.50;3.70;;;;;;;-128.00;-1.00;-1.00;105421;1253;1003910;-78
2023/11/12 04:13:38;;;;;;;20.60;4.50;;;;;;;-128.00;-1.00;-1.00;105337;1253;1004747;-79
2023/11/12 04:16:05;;;;;;;5.20;3.70;;;;;;;-128.00;-1.00;-1.00;105439;1252;1003699;-78
2023/11/12 04:18:32;;;;;;;5.80;4.60;;;;;;;-128.00;-1.00;-1.00;105450;1253;1004380;-78
2023/11/12 04:20:59;;;;;;;6.10;4.20;;;;;;;-128.00;-1.00;-1.00;105447;1253;1003384;-78
2023/11/12 04:23:26;;;;;;;5.70;3.40;;;;;;;-128.00;-1.00;-1.00;105408;1256;1003797;-78
2023/11/12 04:25:52;;;;;;;5.20;3.70;;;;;;;-128.00;-1.00;-1.00;105432;1253;1004308;-78
2023/11/12 04:28:19;;;;;;;5.80;3.70;;;;;;;-128.00;-1.00;-1.00;105391;1253;1004356;-78
2023/11/12 04:30:46;;;;;;;6.20;2.90;;;;;;;-128.00;-1.00;-1.00;105379;1253;1004240;-78
2023/11/12 04:33:13;;;;;;;6.40;3.70;;;;;;;-128.00;-1.00;-1.00;105378;1253;1004875;-78
2023/11/12 04:35:39;;;;;;;5.20;3.20;;;;;;;-128.00;-1.00;-1.00;105417;1254;1004008;-78
2023/11/12 04:38:06;;;;;;;5.50;3.90;;;;;;;-128.00;-1.00;-1.00;105458;1252;1003557;-78
2023/11/12 04:40:35;;;;;;;6.10;3.60;;;;;;;-128.00;-1.00;-1.00;105400;1253;1003415;-78
2023/11/12 04:43:02;;;;;;;5.60;3.70;;;;;;;-128.00;-1.00;-1.00;105394;1253;1045565;-78
2023/11/12 04:45:28;;;;;;;4.60;3.90;;;;;;;-128.00;-1.00;-1.00;105440;1253;1003321;-78
2023/11/12 04:47:55;;;;;;;7.30;4.50;;;;;;;-128.00;-1.00;-1.00;105397;1253;1004078;-78
2023/11/12 04:50:21;;;;;;;6.60;4.60;;;;;;;-128.00;-1.00;-1.00;105413;1253;1004731;-78
2023/11/12 04:52:48;;;;;;;6.50;4.90;;;;;;;-128.00;-1.00;-1.00;105375;1253;1004800;-78
2023/11/12 04:55:14;;;;;;;6.80;4.80;;;;;;;-128.00;-1.00;-1.00;105387;1253;1004216;-78
2023/11/12 04:57:41;;;;;;;8.70;6.20;;;;;;;-128.00;-1.00;-1.00;105425;1253;1004399;-78
2023/11/12 05:00:08;;;;;;;7.40;4.70;;;;;;;-128.00;-1.00;-1.00;105444;1253;1003901;-78
2023/11/12 05:02:35;;;;;;;5.50;4.30;;;;;;;-128.00;-1.00;-1.00;105521;1253;1004956;-78
2023/11/12 05:05:01;;;;;;;6.40;4.50;;;;;;;-128.00;-1.00;-1.00;105424;1253;1003570;-78
2023/11/12 05:07:28;;;;;;;8.10;5.50;;;;;;;-128.00;-1.00;-1.00;105389;1253;1004275;-78
2023/11/12 05:09:55;;;;;;;8.90;5.80;;;;;;;-128.00;-1.00;-1.00;105488;1253;1004602;-78
2023/11/12 05:12:22;;;;;;;7.10;5.70;;;;;;;-128.00;-1.00;-1.00;105435;1253;1004660;-78
2023/11/12 05:14:48;;;;;;;6.20;4.60;;;;;;;-128.00;-1.00;-1.00;105419;1254;1004244;-78
2023/11/12 05:17:15;;;;;;;6.90;5.60;;;;;;;-128.00;-1.00;-1.00;105394;1253;1003677;-78
2023/11/12 05:19:41;;;;;;;5.90;4.40;;;;;;;-128.00;-1.00;-1.00;105401;1253;1003867;-78
2023/11/12 05:22:08;;;;;;;6.30;4.10;;;;;;;-128.00;-1.00;-1.00;105377;1253;1003713;-78
2023/11/12 05:24:36;;;;;;;5.70;4.30;;;;;;;-128.00;-1.00;-1.00;105375;1253;1004400;-78
2023/11/12 05:27:02;;;;;;;7.10;4.80;;;;;;;-128.00;-1.00;-1.00;105391;1253;1003701;-78
2023/11/12 05:29:29;;;;;;;7.60;4.30;;;;;;;-128.00;-1.00;-1.00;105422;1253;1004398;-78
2023/11/12 05:31:56;;;;;;;5.60;4.70;;;;;;;-128.00;-1.00;-1.00;105379;1254;1004165;-78
2023/11/12 05:34:23;;;;;;;5.20;4.40;;;;;;;-128.00;-1.00;-1.00;105417;1257;1004323;-78
2023/11/12 05:36:49;;;;;;;6.10;4.50;;;;;;;-128.00;-1.00;-1.00;105293;1253;1005283;-79
2023/11/12 05:39:16;;;;;;;7.00;4.80;;;;;;;-128.00;-1.00;-1.00;105322;1253;1005239;-80
2023/11/12 05:41:42;;;;;;;6.10;4.40;;;;;;;-128.00;-1.00;-1.00;105217;1253;1004070;-79
2023/11/12 05:44:09;;;;;;;6.00;4.50;;;;;;;-128.00;-1.00;-1.00;105274;1256;1004099;-79
2023/11/12 05:46:35;;;;;;;5.70;4.10;;;;;;;-128.00;-1.00;-1.00;105330;1253;1004338;-78
2023/11/12 05:49:02;;;;;;;6.30;4.20;;;;;;;-128.00;-1.00;-1.00;105400;1253;1004471;-79
2023/11/12 05:51:28;;;;;;;12.90;7.40;;;;;;;-128.00;-1.00;-1.00;105425;1257;1003548;-78
2023/11/12 05:53:55;;;;;;;12.40;7.50;;;;;;;-128.00;-1.00;-1.00;105369;1254;1004943;-78
2023/11/12 05:56:21;;;;;;;9.90;6.80;;;;;;;-128.00;-1.00;-1.00;105386;1254;1003792;-78
2023/11/12 05:58:48;;;;;;;11.40;8.90;;;;;;;-128.00;-1.00;-1.00;105395;1254;1004615;-78
2023/11/12 06:01:14;;;;;;;5.50;4.90;;;;;;;-128.00;-1.00;-1.00;105421;1253;1004429;-78
2023/11/12 06:03:41;;;;;;;6.40;4.50;;;;;;;-128.00;-1.00;-1.00;105473;1253;1003717;-78
2023/11/12 06:06:08;;;;;;;6.30;4.70;;;;;;;-128.00;-1.00;-1.00;105456;1254;1004240;-79
2023/11/12 06:08:38;;;;;;;6.00;4.40;;;;;;;-128.00;-1.00;-1.00;105414;1253;1003487;-78
2023/11/12 06:11:06;;;;;;;6.00;4.00;;;;;;;-128.00;-1.00;-1.00;105374;1256;1047131;-78
2023/11/12 06:13:33;;;;;;;8.90;5.20;;;;;;;-128.00;-1.00;-1.00;105453;1256;1004533;-78
2023/11/12 06:15:59;;;;;;;10.50;5.90;;;;;;;-128.00;-1.00;-1.00;105382;1255;1005217;-78
2023/11/12 06:18:26;;;;;;;9.70;5.80;;;;;;;-128.00;-1.00;-1.00;105449;1253;1004697;-78
2023/11/12 06:20:52;;;;;;;11.70;6.10;;;;;;;-128.00;-1.00;-1.00;105465;1255;1004741;-78
2023/11/12 06:23:19;;;;;;;9.80;5.60;;;;;;;-128.00;-1.00;-1.00;105404;1252;1004011;-78
2023/11/12 06:25:45;;;;;;;11.70;7.20;;;;;;;-128.00;-1.00;-1.00;105417;1257;1003659;-79
2023/11/12 06:28:12;;;;;;;12.50;7.10;;;;;;;-128.00;-1.00;-1.00;105284;1254;1004039;-80
2023/11/12 06:30:39;;;;;;;8.50;5.50;;;;;;;-128.00;-1.00;-1.00;105382;1252;1004201;-78
2023/11/12 06:33:05;;;;;;;17.50;15.60;;;;;;;-128.00;-1.00;-1.00;105262;1254;1003884;-78
2023/11/12 06:35:32;;;;;;;10.70;7.90;;;;;;;-128.00;-1.00;-1.00;105430;1254;1005045;-78
2023/11/12 06:37:58;;;;;;;8.00;5.70;;;;;;;-128.00;-1.00;-1.00;105381;1254;1004356;-78
2023/11/12 06:40:24;;;;;;;12.70;8.00;;;;;;;-128.00;-1.00;-1.00;105440;1253;1003799;-78
2023/11/12 06:42:51;;;;;;;10.50;7.50;;;;;;;-128.00;-1.00;-1.00;105387;1254;1003892;-78
2023/11/12 06:45:19;;;;;;;11.50;7.80;;;;;;;-128.00;-1.00;-1.00;105432;1254;1004161;-78
2023/11/12 06:47:45;;;;;;;7.50;5.50;;;;;;;-128.00;-1.00;-1.00;105401;1254;1004479;-78
2023/11/12 06:50:12;;;;;;;11.00;5.10;;;;;;;-128.00;-1.00;-1.00;105403;1253;1003714;-78
2023/11/12 06:52:39;;;;;;;8.80;5.80;;;;;;;-128.00;-1.00;-1.00;105383;1252;1005349;-78
2023/11/12 06:55:07;;;;;;;11.10;5.20;;;;;;;-128.00;-1.00;-1.00;105375;1253;1005015;-78
2023/11/12 06:57:33;;;;;;;14.40;6.40;;;;;;;-128.00;-1.00;-1.00;105467;1253;1004289;-78
2023/11/12 07:00:00;;;;;;;8.30;4.40;;;;;;;-128.00;-1.00;-1.00;105389;1252;1004229;-78
2023/11/12 07:02:26;;;;;;;12.40;7.20;;;;;;;-128.00;-1.00;-1.00;105397;1252;1003851;-78
2023/11/12 07:04:53;;;;;;;9.80;5.10;;;;;;;-128.00;-1.00;-1.00;105399;1254;1004570;-78
2023/11/12 07:07:19;;;;;;;10.20;6.60;;;;;;;-128.00;-1.00;-1.00;105410;1255;1004534;-78
2023/11/12 07:09:46;;;;;;;18.50;13.50;;;;;;;-128.00;-1.00;-1.00;105371;1252;1004062;-79
2023/11/12 07:12:14;;;;;;;15.40;10.50;;;;;;;-128.00;-1.00;-1.00;105404;1253;1003955;-78
2023/11/12 07:14:41;;;;;;;17.90;13.70;;;;;;;-128.00;-1.00;-1.00;105398;1253;1005089;-78
2023/11/12 07:17:08;;;;;;;13.20;8.50;;;;;;;-128.00;-1.00;-1.00;105408;1253;1004450;-78
2023/11/12 07:19:36;;;;;;;12.20;8.40;;;;;;;-128.00;-1.00;-1.00;105418;1254;1003630;-78
2023/11/12 07:22:04;;;;;;;11.00;7.10;;;;;;;-128.00;-1.00;-1.00;105383;1254;1004214;-78
2023/11/12 07:24:30;;;;;;;11.70;7.50;;;;;;;-128.00;-1.00;-1.00;105408;1254;1005126;-78
2023/11/12 07:26:57;;;;;;;12.60;7.10;;;;;;;-128.00;-1.00;-1.00;105378;1253;1004531;-78
2023/11/12 07:29:23;;;;;;;14.40;8.00;;;;;;;-128.00;-1.00;-1.00;105443;1253;1004963;-78
2023/11/12 07:31:50;;;;;;;17.80;9.20;;;;;;;-128.00;-1.00;-1.00;105408;1254;1003494;-78
2023/11/12 07:34:16;;;;;;;17.00;9.00;;;;;;;-128.00;-1.00;-1.00;105411;1254;1004413;-78
2023/11/12 07:36:43;;;;;;;17.50;11.10;;;;;;;-128.00;-1.00;-1.00;105405;1254;1004931;-78
2023/11/12 07:39:12;;;;;;;23.80;15.10;;;;;;;-128.00;-1.00;-1.00;105296;1254;1003833;-78
2023/11/12 07:41:39;;;;;;;16.00;10.10;;;;;;;-128.00;-1.00;-1.00;105428;1254;1059586;-78
2023/11/12 07:44:05;;;;;;;16.00;10.40;;;;;;;-128.00;-1.00;-1.00;105410;1253;1004587;-78
2023/11/12 07:46:32;;;;;;;16.70;11.20;;;;;;;-128.00;-1.00;-1.00;105398;1254;1004232;-78
2023/11/12 07:48:59;;;;;;;17.30;11.80;;;;;;;-128.00;-1.00;-1.00;105395;1252;1004179;-78
2023/11/12 07:51:25;;;;;;;23.50;13.00;;;;;;;-128.00;-1.00;-1.00;105415;1253;1004710;-78
2023/11/12 07:53:52;;;;;;;24.20;16.10;;;;;;;-128.00;-1.00;-1.00;105418;1253;1004768;-78
2023/11/12 07:56:20;;;;;;;20.80;13.00;;;;;;;-128.00;-1.00;-1.00;105386;1254;1004734;-79
2023/11/12 07:58:48;;;;;;;20.40;14.40;;;;;;;-128.00;-1.00;-1.00;105352;1253;1044786;-78
2023/11/12 08:01:15;;;;;;;49.60;23.40;;;;;;;-128.00;-1.00;-1.00;105404;1253;1005029;-78
2023/11/12 08:03:42;;;;;;;113.40;38.30;;;;;;;-128.00;-1.00;-1.00;105449;1253;1004334;-78
2023/11/12 08:06:09;;;;;;;47.70;21.10;;;;;;;-128.00;-1.00;-1.00;105394;1254;1003565;-78
2023/11/12 08:08:36;;;;;;;76.20;29.90;;;;;;;-128.00;-1.00;-1.00;105446;1252;1003805;-78
2023/11/12 08:11:03;;;;;;;45.10;17.90;;;;;;;-128.00;-1.00;-1.00;105413;1252;1003568;-79
2023/11/12 08:13:30;;;;;;;24.30;10.70;;;;;;;-128.00;-1.00;-1.00;105369;1253;1004785;-80
2023/11/12 08:15:56;;;;;;;5.90;4.10;;;;;;;-128.00;-1.00;-1.00;105331;1253;1003960;-78
2023/11/12 08:18:25;;;;;;;6.50;3.90;;;;;;;-128.00;-1.00;-1.00;105320;1254;1004620;-79
2023/11/12 08:20:54;;;;;;;5.80;3.20;;;;;;;-128.00;-1.00;-1.00;105415;1254;1059563;-78
2023/11/12 08:23:21;;;;;;;12.30;6.20;;;;;;;-128.00;-1.00;-1.00;105391;1254;1045151;-78
2023/11/12 08:25:47;;;;;;;7.90;5.60;;;;;;;-128.00;-1.00;-1.00;105421;1256;1004694;-78
2023/11/12 08:28:15;;;;;;;6.20;3.50;;;;;;;-128.00;-1.00;-1.00;105416;1252;1005096;-78
2023/11/12 08:30:41;;;;;;;4.60;3.50;;;;;;;-128.00;-1.00;-1.00;105442;1253;1003964;-78
2023/11/12 08:33:08;;;;;;;8.40;4.00;;;;;;;-128.00;-1.00;-1.00;105427;1253;1004215;-78
2023/11/12 08:35:34;;;;;;;9.60;5.80;;;;;;;-128.00;-1.00;-1.00;105367;1252;1003614;-78
2023/11/12 08:38:01;;;;;;;9.40;4.70;;;;;;;-128.00;-1.00;-1.00;105380;1254;1004468;-78
2023/11/12 08:40:27;;;;;;;4.70;3.10;;;;;;;-128.00;-1.00;-1.00;105373;1254;1003335;-78
2023/11/12 08:42:54;;;;;;;9.40;4.90;;;;;;;-128.00;-1.00;-1.00;105394;1254;1004034;-78
2023/11/12 08:45:20;;;;;;;6.80;4.40;;;;;;;-128.00;-1.00;-1.00;105427;1254;1005368;-78
2023/11/12 08:47:47;;;;;;;6.20;3.60;;;;;;;-128.00;-1.00;-1.00;105337;1252;1004092;-79
2023/11/12 08:50:13;;;;;;;14.80;9.90;;;;;;;-128.00;-1.00;-1.00;105363;1253;1004813;-78
2023/11/12 08:52:40;;;;;;;12.30;7.70;;;;;;;-128.00;-1.00;-1.00;105341;1254;1004811;-78
2023/11/12 08:55:07;;;;;;;17.50;12.50;;;;;;;-128.00;-1.00;-1.00;105410;1253;1004878;-78
2023/11/12 08:57:34;;;;;;;8.50;5.90;;;;;;;-128.00;-1.00;-1.00;105360;1253;1003938;-78
2023/11/12 09:00:02;;;;;;;6.70;3.50;;;;;;;-128.00;-1.00;-1.00;105388;1252;1005177;-78
2023/11/12 09:02:28;;;;;;;6.80;3.90;;;;;;;-128.00;-1.00;-1.00;105380;1253;1005050;-78
2023/11/12 09:04:55;;;;;;;6.70;4.20;;;;;;;-128.00;-1.00;-1.00;105446;1252;1004325;-78
2023/11/12 09:07:21;;;;;;;5.40;4.00;;;;;;;-128.00;-1.00;-1.00;105431;1254;1004182;-78
2023/11/12 09:09:48;;;;;;;4.90;3.90;;;;;;;-128.00;-1.00;-1.00;105404;1252;1004324;-78
2023/11/12 09:12:14;;;;;;;6.50;4.40;;;;;;;-128.00;-1.00;-1.00;105412;1253;1003838;-78
2023/11/12 09:14:41;;;;;;;11.00;5.50;;;;;;;-128.00;-1.00;-1.00;105445;1252;1004654;-78
2023/11/12 09:17:08;;;;;;;13.40;7.60;;;;;;;-128.00;-1.00;-1.00;105385;1252;1003328;-78
2023/11/12 09:19:35;;;;;;;5.60;3.20;;;;;;;-128.00;-1.00;-1.00;105521;1253;1004260;-78
2023/11/12 09:22:01;;;;;;;4.30;2.90;;;;;;;-128.00;-1.00;-1.00;105366;1254;1005059;-78
2023/11/12 09:24:28;;;;;;;7.30;4.60;;;;;;;-128.00;-1.00;-1.00;105444;1253;1004093;-78
2023/11/12 09:26:55;;;;;;;8.20;6.60;;;;;;;-128.00;-1.00;-1.00;105425;1253;1004041;-78
2023/11/12 09:29:21;;;;;;;10.70;8.40;;;;;;;-128.00;-1.00;-1.00;105417;1254;1004565;-78
2023/11/12 09:31:48;;;;;;;10.20;7.30;;;;;;;-128.00;-1.00;-1.00;105428;1253;1003988;-78
2023/11/12 09:34:16;;;;;;;15.10;7.30;;;;;;;-128.00;-1.00;-1.00;105393;1252;1004787;-78
2023/11/12 09:36:42;;;;;;;7.00;5.30;;;;;;;-128.00;-1.00;-1.00;105402;1253;1004332;-78
2023/11/12 09:39:12;;;;;;;7.40;4.70;;;;;;;-128.00;-1.00;-1.00;105573;1253;1003919;-78
2023/11/12 09:41:44;;;;;;;6.00;4.30;;;;;;;-128.00;-1.00;-1.00;105391;1253;1061980;-78
2023/11/12 09:44:11;;;;;;;6.90;4.10;;;;;;;-128.00;-1.00;-1.00;105434;1253;1057065;-79
2023/11/12 09:46:37;;;;;;;6.40;4.50;;;;;;;-128.00;-1.00;-1.00;105301;1253;1005175;-78
2023/11/12 09:49:05;;;;;;;9.60;6.80;;;;;;;-128.00;-1.00;-1.00;105461;1252;1004381;-78
2023/11/12 09:51:35;;;;;;;9.40;5.80;;;;;;;-128.00;-1.00;-1.00;105378;1253;1004831;-79
2023/11/12 09:54:03;;;;;;;9.50;5.80;;;;;;;-128.00;-1.00;-1.00;105396;1252;1061888;-78
2023/11/12 09:56:29;;;;;;;9.80;5.30;;;;;;;-128.00;-1.00;-1.00;105404;1252;1005386;-78
2023/11/12 09:58:56;;;;;;;8.60;5.50;;;;;;;-128.00;-1.00;-1.00;105373;1253;1004494;-78
2023/11/12 10:01:24;;;;;;;11.80;6.90;;;;;;;-128.00;-1.00;-1.00;105429;1253;1004334;-78
2023/11/12 10:03:50;;;;;;;10.90;7.10;;;;;;;-128.00;-1.00;-1.00;105232;1253;1004329;-79
2023/11/12 10:06:20;;;;;;;16.70;15.00;;;;;;;-128.00;-1.00;-1.00;105433;1253;1005401;-78
2023/11/12 10:08:47;;;;;;;15.30;13.20;;;;;;;-128.00;-1.00;-1.00;105418;1252;1057702;-78
2023/11/12 10:11:17;;;;;;;19.10;14.30;;;;;;;-128.00;-1.00;-1.00;105394;1253;1003808;-78
2023/11/12 10:13:46;;;;;;;19.80;14.20;;;;;;;-128.00;-1.00;-1.00;105406;1253;1045788;-78
2023/11/12 10:16:23;;;;;;;16.20;9.30;;;;;;;-128.00;-1.00;-1.00;105429;1253;1047921;-79
2023/11/12 10:18:53;;;;;;;7.70;5.90;;;;;;;-128.00;-1.00;-1.00;105434;1252;1061781;-78
2023/11/12 10:21:20;;;;;;;46.80;30.30;;;;;;;-128.00;-1.00;-1.00;105443;1252;1057109;-79
2023/11/12 10:23:47;;;;;;;16.30;10.70;;;;;;;-128.00;-1.00;-1.00;105385;1253;1003413;-78
2023/11/12 10:26:14;;;;;;;11.70;8.60;;;;;;;-128.00;-1.00;-1.00;105393;1253;1004776;-79
2023/11/12 10:28:41;;;;;;;20.30;13.40;;;;;;;-128.00;-1.00;-1.00;105374;1252;1004164;-78
2023/11/12 10:31:11;;;;;;;15.40;10.50;;;;;;;-128.00;-1.00;-1.00;105445;1252;1004201;-78
2023/11/12 10:33:38;;;;;;;11.10;7.40;;;;;;;-128.00;-1.00;-1.00;105474;1252;1058890;-79
2023/11/12 10:36:09;;;;;;;13.80;8.80;;;;;;;-128.00;-1.00;-1.00;105430;1252;1003439;-78
2023/11/12 10:38:47;;;;;;;13.80;9.40;;;;;;;-128.00;-1.00;-1.00;105475;1252;1045687;-79
2023/11/12 10:41:13;;;;;;;9.30;6.70;;;;;;;-128.00;-1.00;-1.00;105405;1252;1048157;-79
2023/11/12 10:43:40;;;;;;;9.30;7.30;;;;;;;-128.00;-1.00;-1.00;105438;1252;1004518;-78
2023/11/12 10:46:07;;;;;;;13.90;9.70;;;;;;;-128.00;-1.00;-1.00;105470;1253;1004113;-78
2023/11/12 10:48:35;;;;;;;17.30;13.20;;;;;;;-128.00;-1.00;-1.00;105408;1252;1004125;-79
2023/11/12 10:51:06;;;;;;;76.20;38.10;;;;;;;-128.00;-1.00;-1.00;105404;1252;1003786;-79
2023/11/12 10:53:33;;;;;;;41.60;22.80;;;;;;;-128.00;-1.00;-1.00;105358;1253;1047110;-78
2023/11/12 10:56:00;;;;;;;14.50;8.10;;;;;;;-128.00;-1.00;-1.00;105440;1252;1005033;-79
2023/11/12 10:58:30;;;;;;;13.60;6.90;;;;;;;-128.00;-1.00;-1.00;105565;1253;1004479;-79
2023/11/12 11:01:01;;;;;;;15.30;9.10;;;;;;;-128.00;-1.00;-1.00;105363;1252;1059212;-78
2023/11/12 11:03:31;;;;;;;18.10;10.60;;;;;;;-128.00;-1.00;-1.00;105341;1254;1045881;-79
2023/11/12 11:06:05;;;;;;;14.40;7.90;;;;;;;-128.00;-1.00;-1.00;105437;1253;1047022;-79
2023/11/12 11:08:33;;;;;;;43.90;21.40;;;;;;;-128.00;-1.00;-1.00;105432;1252;1061588;-79